sensor_id;sensor_type;location;lat;lon;timestamp;P1;durP1;ratioP1;P2;durP2;ratioP2
69253;SDS011;56364;41.816;12.448;2023-07-31T00:02:06;5.10;;;2.35;;
69253;SDS011;56364;41.816;12.448;2023-07-31T00:04:38;6.70;;;2.83;;
69253;SDS011;56364;41.816;12.448;2023-07-31T00:07:04;6.75;;;2.90;;
69253;SDS011;56364;41.816;12.448;2023-07-31T00:09:31;8.40;;;2.72;;
69253;SDS011;56364;41.816;12.448;2023-07-31T00:12:03;8.48;;;2.67;;
69253;SDS011;56364;41.816;12.448;2023-07-31T00:14:30;7.93;;;2.60;;
69253;SDS011;56364;41.816;12.448;2023-07-31T00:16:56;9.15;;;2.70;;
69253;SDS011;56364;41.816;12.448;2023-07-31T00:19:22;10.10;;;2.45;;
69253;SDS011;56364;41.816;12.448;2023-07-31T00:21:48;6.80;;;2.20;;
69253;SDS011;56364;41.816;12.448;2023-07-31T00:24:15;5.75;;;2.30;;
69253;SDS011;56364;41.816;12.448;2023-07-31T00:26:41;6.05;;;2.45;;
69253;SDS011;56364;41.816;12.448;2023-07-31T00:29:07;7.90;;;2.63;;
69253;SDS011;56364;41.816;12.448;2023-07-31T00:31:33;7.25;;;2.60;;
69253;SDS011;56364;41.816;12.448;2023-07-31T00:34:05;5.25;;;2.78;;
69253;SDS011;56364;41.816;12.448;2023-07-31T00:36:31;5.78;;;2.10;;
69253;SDS011;56364;41.816;12.448;2023-07-31T00:39:00;10.80;;;2.58;;
69253;SDS011;56364;41.816;12.448;2023-07-31T00:41:26;5.15;;;2.35;;
69253;SDS011;56364;41.816;12.448;2023-07-31T00:43:52;5.68;;;2.67;;
69253;SDS011;56364;41.816;12.448;2023-07-31T00:46:19;7.10;;;2.25;;
69253;SDS011;56364;41.816;12.448;2023-07-31T00:48:45;7.05;;;2.33;;
69253;SDS011;56364;41.816;12.448;2023-07-31T00:51:11;5.60;;;2.47;;
69253;SDS011;56364;41.816;12.448;2023-07-31T00:53:37;5.07;;;2.13;;
69253;SDS011;56364;41.816;12.448;2023-07-31T00:56:04;8.95;;;3.15;;
69253;SDS011;56364;41.816;12.448;2023-07-31T00:58:30;5.43;;;2.60;;
69253;SDS011;56364;41.816;12.448;2023-07-31T01:00:56;6.45;;;2.20;;
69253;SDS011;56364;41.816;12.448;2023-07-31T01:03:23;6.18;;;2.42;;
69253;SDS011;56364;41.816;12.448;2023-07-31T01:05:52;6.00;;;2.25;;
69253;SDS011;56364;41.816;12.448;2023-07-31T01:10:50;5.63;;;2.50;;
69253;SDS011;56364;41.816;12.448;2023-07-31T01:13:17;8.00;;;2.63;;
69253;SDS011;56364;41.816;12.448;2023-07-31T01:15:43;7.85;;;2.58;;
69253;SDS011;56364;41.816;12.448;2023-07-31T01:18:09;7.40;;;2.25;;
69253;SDS011;56364;41.816;12.448;2023-07-31T01:20:35;11.20;;;2.58;;
69253;SDS011;56364;41.816;12.448;2023-07-31T01:28:09;7.75;;;2.67;;
69253;SDS011;56364;41.816;12.448;2023-07-31T01:30:37;6.43;;;2.20;;
69253;SDS011;56364;41.816;12.448;2023-07-31T01:33:04;5.00;;;2.63;;
69253;SDS011;56364;41.816;12.448;2023-07-31T01:35:33;7.97;;;2.88;;
69253;SDS011;56364;41.816;12.448;2023-07-31T01:37:59;11.18;;;2.80;;
69253;SDS011;56364;41.816;12.448;2023-07-31T01:40:25;5.53;;;2.17;;
69253;SDS011;56364;41.816;12.448;2023-07-31T01:42:54;9.30;;;2.33;;
69253;SDS011;56364;41.816;12.448;2023-07-31T01:45:20;11.98;;;3.08;;
69253;SDS011;56364;41.816;12.448;2023-07-31T01:47:46;10.60;;;2.58;;
69253;SDS011;56364;41.816;12.448;2023-07-31T01:50:12;11.25;;;3.13;;
69253;SDS011;56364;41.816;12.448;2023-07-31T01:52:38;4.85;;;2.80;;
69253;SDS011;56364;41.816;12.448;2023-07-31T01:55:04;11.73;;;2.95;;
69253;SDS011;56364;41.816;12.448;2023-07-31T01:57:30;5.68;;;2.40;;
69253;SDS011;56364;41.816;12.448;2023-07-31T01:59:56;5.90;;;2.13;;
69253;SDS011;56364;41.816;12.448;2023-07-31T02:02:22;8.63;;;2.30;;
69253;SDS011;56364;41.816;12.448;2023-07-31T02:04:48;11.25;;;2.42;;
69253;SDS011;56364;41.816;12.448;2023-07-31T02:07:14;9.40;;;2.80;;
69253;SDS011;56364;41.816;12.448;2023-07-31T02:09:40;7.07;;;2.72;;
69253;SDS011;56364;41.816;12.448;2023-07-31T02:12:07;10.07;;;2.80;;
69253;SDS011;56364;41.816;12.448;2023-07-31T02:14:36;5.82;;;2.30;;
69253;SDS011;56364;41.816;12.448;2023-07-31T02:17:02;6.13;;;2.50;;
69253;SDS011;56364;41.816;12.448;2023-07-31T02:19:28;6.28;;;2.45;;
69253;SDS011;56364;41.816;12.448;2023-07-31T02:21:54;6.85;;;2.70;;
69253;SDS011;56364;41.816;12.448;2023-07-31T02:24:20;6.88;;;2.67;;
69253;SDS011;56364;41.816;12.448;2023-07-31T02:26:46;11.38;;;2.80;;
69253;SDS011;56364;41.816;12.448;2023-07-31T02:29:12;6.90;;;2.95;;
69253;SDS011;56364;41.816;12.448;2023-07-31T02:31:38;5.55;;;2.40;;
69253;SDS011;56364;41.816;12.448;2023-07-31T02:34:04;5.38;;;2.70;;
69253;SDS011;56364;41.816;12.448;2023-07-31T02:36:30;8.23;;;2.88;;
69253;SDS011;56364;41.816;12.448;2023-07-31T02:38:56;10.88;;;3.10;;
69253;SDS011;56364;41.816;12.448;2023-07-31T02:41:22;8.40;;;2.72;;
69253;SDS011;56364;41.816;12.448;2023-07-31T02:43:48;6.50;;;2.75;;
69253;SDS011;56364;41.816;12.448;2023-07-31T02:46:14;7.63;;;3.05;;
69253;SDS011;56364;41.816;12.448;2023-07-31T02:48:40;7.63;;;2.63;;
69253;SDS011;56364;41.816;12.448;2023-07-31T02:51:06;6.65;;;2.92;;
69253;SDS011;56364;41.816;12.448;2023-07-31T02:53:32;6.43;;;2.75;;
69253;SDS011;56364;41.816;12.448;2023-07-31T02:55:58;7.50;;;2.78;;
69253;SDS011;56364;41.816;12.448;2023-07-31T02:58:24;6.72;;;2.75;;
69253;SDS011;56364;41.816;12.448;2023-07-31T03:00:50;9.30;;;3.60;;
69253;SDS011;56364;41.816;12.448;2023-07-31T03:03:16;9.70;;;3.28;;
69253;SDS011;56364;41.816;12.448;2023-07-31T03:05:42;14.52;;;3.53;;
69253;SDS011;56364;41.816;12.448;2023-07-31T03:08:08;7.53;;;3.20;;
69253;SDS011;56364;41.816;12.448;2023-07-31T03:13:28;6.25;;;2.95;;
69253;SDS011;56364;41.816;12.448;2023-07-31T03:26:18;8.73;;;3.17;;
69253;SDS011;56364;41.816;12.448;2023-07-31T03:28:48;14.18;;;3.55;;
69253;SDS011;56364;41.816;12.448;2023-07-31T03:31:14;12.05;;;3.88;;
69253;SDS011;56364;41.816;12.448;2023-07-31T03:33:40;8.40;;;3.22;;
69253;SDS011;56364;41.816;12.448;2023-07-31T03:36:06;13.27;;;3.95;;
69253;SDS011;56364;41.816;12.448;2023-07-31T03:38:33;7.25;;;3.17;;
69253;SDS011;56364;41.816;12.448;2023-07-31T03:40:59;9.25;;;3.80;;
69253;SDS011;56364;41.816;12.448;2023-07-31T03:43:27;9.82;;;3.10;;
69253;SDS011;56364;41.816;12.448;2023-07-31T03:45:54;7.22;;;3.60;;
69253;SDS011;56364;41.816;12.448;2023-07-31T03:48:20;11.77;;;3.92;;
69253;SDS011;56364;41.816;12.448;2023-07-31T03:50:46;7.35;;;3.30;;
69253;SDS011;56364;41.816;12.448;2023-07-31T03:53:12;16.23;;;3.88;;
69253;SDS011;56364;41.816;12.448;2023-07-31T03:55:40;7.97;;;3.50;;
69253;SDS011;56364;41.816;12.448;2023-07-31T03:58:06;10.95;;;3.70;;
69253;SDS011;56364;41.816;12.448;2023-07-31T04:00:32;10.27;;;3.55;;
69253;SDS011;56364;41.816;12.448;2023-07-31T04:02:58;12.32;;;3.72;;
69253;SDS011;56364;41.816;12.448;2023-07-31T04:05:24;11.02;;;3.80;;
69253;SDS011;56364;41.816;12.448;2023-07-31T04:07:50;11.95;;;4.10;;
69253;SDS011;56364;41.816;12.448;2023-07-31T04:10:16;9.98;;;3.83;;
69253;SDS011;56364;41.816;12.448;2023-07-31T04:12:42;12.50;;;4.10;;
69253;SDS011;56364;41.816;12.448;2023-07-31T04:15:08;13.23;;;4.05;;
69253;SDS011;56364;41.816;12.448;2023-07-31T04:17:34;10.98;;;4.00;;
69253;SDS011;56364;41.816;12.448;2023-07-31T04:20:01;9.57;;;3.88;;
69253;SDS011;56364;41.816;12.448;2023-07-31T04:22:27;16.05;;;4.35;;
69253;SDS011;56364;41.816;12.448;2023-07-31T04:24:53;12.90;;;3.60;;
69253;SDS011;56364;41.816;12.448;2023-07-31T04:27:19;7.30;;;3.47;;
69253;SDS011;56364;41.816;12.448;2023-07-31T04:29:45;12.77;;;3.78;;
69253;SDS011;56364;41.816;12.448;2023-07-31T04:32:14;10.52;;;3.30;;
69253;SDS011;56364;41.816;12.448;2023-07-31T04:34:44;9.15;;;3.38;;
69253;SDS011;56364;41.816;12.448;2023-07-31T04:37:10;7.22;;;2.92;;
69253;SDS011;56364;41.816;12.448;2023-07-31T04:39:36;8.20;;;3.08;;
69253;SDS011;56364;41.816;12.448;2023-07-31T04:42:02;7.57;;;2.80;;
69253;SDS011;56364;41.816;12.448;2023-07-31T04:44:28;11.35;;;3.55;;
69253;SDS011;56364;41.816;12.448;2023-07-31T04:46:55;8.00;;;3.28;;
69253;SDS011;56364;41.816;12.448;2023-07-31T04:49:21;6.93;;;3.50;;
69253;SDS011;56364;41.816;12.448;2023-07-31T04:51:47;9.73;;;3.22;;
69253;SDS011;56364;41.816;12.448;2023-07-31T04:54:13;6.43;;;2.80;;
69253;SDS011;56364;41.816;12.448;2023-07-31T04:56:40;10.07;;;3.20;;
69253;SDS011;56364;41.816;12.448;2023-07-31T04:59:06;8.18;;;3.22;;
69253;SDS011;56364;41.816;12.448;2023-07-31T05:01:32;6.75;;;3.28;;
69253;SDS011;56364;41.816;12.448;2023-07-31T05:03:58;7.13;;;3.03;;
69253;SDS011;56364;41.816;12.448;2023-07-31T05:06:24;8.82;;;3.10;;
69253;SDS011;56364;41.816;12.448;2023-07-31T05:08:50;11.52;;;3.13;;
69253;SDS011;56364;41.816;12.448;2023-07-31T05:11:16;10.45;;;3.40;;
69253;SDS011;56364;41.816;12.448;2023-07-31T05:13:42;7.35;;;2.97;;
69253;SDS011;56364;41.816;12.448;2023-07-31T05:16:08;12.27;;;3.10;;
69253;SDS011;56364;41.816;12.448;2023-07-31T05:18:34;8.18;;;3.20;;
69253;SDS011;56364;41.816;12.448;2023-07-31T05:21:00;8.55;;;3.00;;
69253;SDS011;56364;41.816;12.448;2023-07-31T05:23:27;8.95;;;3.78;;
69253;SDS011;56364;41.816;12.448;2023-07-31T05:25:53;10.95;;;3.20;;
69253;SDS011;56364;41.816;12.448;2023-07-31T05:28:20;7.15;;;2.92;;
69253;SDS011;56364;41.816;12.448;2023-07-31T05:30:47;9.48;;;3.65;;
69253;SDS011;56364;41.816;12.448;2023-07-31T05:33:13;13.25;;;3.30;;
69253;SDS011;56364;41.816;12.448;2023-07-31T05:35:39;7.78;;;3.13;;
69253;SDS011;56364;41.816;12.448;2023-07-31T05:38:12;13.93;;;3.60;;
69253;SDS011;56364;41.816;12.448;2023-07-31T05:40:39;12.15;;;3.20;;
69253;SDS011;56364;41.816;12.448;2023-07-31T05:43:11;8.45;;;2.72;;
69253;SDS011;56364;41.816;12.448;2023-07-31T05:45:39;5.93;;;2.50;;
69253;SDS011;56364;41.816;12.448;2023-07-31T05:48:05;5.28;;;2.80;;
69253;SDS011;56364;41.816;12.448;2023-07-31T05:50:31;7.97;;;2.75;;
69253;SDS011;56364;41.816;12.448;2023-07-31T05:52:57;7.13;;;2.58;;
69253;SDS011;56364;41.816;12.448;2023-07-31T05:55:24;10.18;;;3.22;;
69253;SDS011;56364;41.816;12.448;2023-07-31T05:57:52;8.82;;;3.05;;
69253;SDS011;56364;41.816;12.448;2023-07-31T06:00:18;9.70;;;2.65;;
69253;SDS011;56364;41.816;12.448;2023-07-31T06:02:44;7.43;;;2.80;;
69253;SDS011;56364;41.816;12.448;2023-07-31T06:05:13;5.70;;;2.80;;
69253;SDS011;56364;41.816;12.448;2023-07-31T06:07:39;9.07;;;2.78;;
69253;SDS011;56364;41.816;12.448;2023-07-31T06:10:05;7.47;;;2.78;;
69253;SDS011;56364;41.816;12.448;2023-07-31T06:12:32;8.00;;;2.95;;
69253;SDS011;56364;41.816;12.448;2023-07-31T06:14:58;13.02;;;3.03;;
69253;SDS011;56364;41.816;12.448;2023-07-31T06:17:24;6.43;;;2.72;;
69253;SDS011;56364;41.816;12.448;2023-07-31T06:19:51;6.70;;;2.85;;
69253;SDS011;56364;41.816;12.448;2023-07-31T06:22:17;7.20;;;2.63;;
69253;SDS011;56364;41.816;12.448;2023-07-31T06:24:44;7.80;;;3.15;;
69253;SDS011;56364;41.816;12.448;2023-07-31T06:27:13;7.55;;;3.63;;
69253;SDS011;56364;41.816;12.448;2023-07-31T06:40:33;7.00;;;2.95;;
69253;SDS011;56364;41.816;12.448;2023-07-31T06:43:00;8.20;;;2.55;;
69253;SDS011;56364;41.816;12.448;2023-07-31T06:45:32;5.65;;;2.30;;
69253;SDS011;56364;41.816;12.448;2023-07-31T06:47:58;8.35;;;2.70;;
69253;SDS011;56364;41.816;12.448;2023-07-31T06:50:26;6.35;;;2.38;;
69253;SDS011;56364;41.816;12.448;2023-07-31T06:52:52;6.80;;;2.42;;
69253;SDS011;56364;41.816;12.448;2023-07-31T06:55:19;8.65;;;2.90;;
69253;SDS011;56364;41.816;12.448;2023-07-31T06:57:46;10.65;;;2.80;;
69253;SDS011;56364;41.816;12.448;2023-07-31T07:00:12;5.28;;;2.70;;
69253;SDS011;56364;41.816;12.448;2023-07-31T07:02:38;9.05;;;2.58;;
69253;SDS011;56364;41.816;12.448;2023-07-31T07:05:04;16.05;;;3.25;;
69253;SDS011;56364;41.816;12.448;2023-07-31T07:07:30;6.53;;;2.15;;
69253;SDS011;56364;41.816;12.448;2023-07-31T07:09:56;11.73;;;2.72;;
69253;SDS011;56364;41.816;12.448;2023-07-31T07:12:24;7.55;;;2.50;;
69253;SDS011;56364;41.816;12.448;2023-07-31T07:14:50;9.15;;;2.95;;
69253;SDS011;56364;41.816;12.448;2023-07-31T07:17:18;8.32;;;2.75;;
69253;SDS011;56364;41.816;12.448;2023-07-31T07:19:44;6.93;;;2.38;;
69253;SDS011;56364;41.816;12.448;2023-07-31T07:22:13;4.63;;;2.13;;
69253;SDS011;56364;41.816;12.448;2023-07-31T07:24:39;12.10;;;2.50;;
69253;SDS011;56364;41.816;12.448;2023-07-31T07:27:21;8.38;;;2.40;;
69253;SDS011;56364;41.816;12.448;2023-07-31T07:29:47;7.40;;;2.25;;
69253;SDS011;56364;41.816;12.448;2023-07-31T07:32:15;9.77;;;2.30;;
69253;SDS011;56364;41.816;12.448;2023-07-31T07:34:42;6.55;;;2.22;;
69253;SDS011;56364;41.816;12.448;2023-07-31T07:37:08;7.43;;;2.30;;
69253;SDS011;56364;41.816;12.448;2023-07-31T07:39:34;9.32;;;2.65;;
69253;SDS011;56364;41.816;12.448;2023-07-31T07:42:00;9.57;;;2.22;;
69253;SDS011;56364;41.816;12.448;2023-07-31T07:44:26;7.07;;;2.20;;
69253;SDS011;56364;41.816;12.448;2023-07-31T07:46:52;5.68;;;2.40;;
69253;SDS011;56364;41.816;12.448;2023-07-31T07:49:18;4.97;;;2.20;;
69253;SDS011;56364;41.816;12.448;2023-07-31T07:51:47;7.28;;;2.50;;
69253;SDS011;56364;41.816;12.448;2023-07-31T07:54:13;8.30;;;2.25;;
69253;SDS011;56364;41.816;12.448;2023-07-31T07:56:39;5.45;;;2.58;;
69253;SDS011;56364;41.816;12.448;2023-07-31T07:59:06;9.35;;;2.67;;
69253;SDS011;56364;41.816;12.448;2023-07-31T08:01:32;4.95;;;2.30;;
69253;SDS011;56364;41.816;12.448;2023-07-31T08:03:58;5.25;;;2.50;;
69253;SDS011;56364;41.816;12.448;2023-07-31T08:06:24;4.90;;;1.75;;
69253;SDS011;56364;41.816;12.448;2023-07-31T08:08:50;6.35;;;1.88;;
69253;SDS011;56364;41.816;12.448;2023-07-31T08:11:16;6.70;;;2.45;;
69253;SDS011;56364;41.816;12.448;2023-07-31T08:13:42;8.43;;;1.95;;
69253;SDS011;56364;41.816;12.448;2023-07-31T08:16:08;7.00;;;1.98;;
69253;SDS011;56364;41.816;12.448;2023-07-31T08:18:35;7.55;;;2.40;;
69253;SDS011;56364;41.816;12.448;2023-07-31T08:21:01;5.30;;;2.33;;
69253;SDS011;56364;41.816;12.448;2023-07-31T08:23:30;5.53;;;1.83;;
69253;SDS011;56364;41.816;12.448;2023-07-31T08:25:56;3.85;;;1.85;;
69253;SDS011;56364;41.816;12.448;2023-07-31T08:28:22;8.07;;;2.10;;
69253;SDS011;56364;41.816;12.448;2023-07-31T08:30:48;5.72;;;1.80;;
69253;SDS011;56364;41.816;12.448;2023-07-31T08:33:15;5.43;;;1.55;;
69253;SDS011;56364;41.816;12.448;2023-07-31T08:35:41;7.70;;;2.55;;
69253;SDS011;56364;41.816;12.448;2023-07-31T08:38:07;8.13;;;2.33;;
69253;SDS011;56364;41.816;12.448;2023-07-31T08:40:35;8.35;;;2.00;;
69253;SDS011;56364;41.816;12.448;2023-07-31T08:43:03;2.78;;;1.60;;
69253;SDS011;56364;41.816;12.448;2023-07-31T08:45:29;6.00;;;1.90;;
69253;SDS011;56364;41.816;12.448;2023-07-31T08:47:56;7.75;;;1.88;;
69253;SDS011;56364;41.816;12.448;2023-07-31T08:50:22;11.40;;;2.72;;
69253;SDS011;56364;41.816;12.448;2023-07-31T08:52:49;4.88;;;2.10;;
69253;SDS011;56364;41.816;12.448;2023-07-31T08:55:15;7.45;;;2.13;;
69253;SDS011;56364;41.816;12.448;2023-07-31T08:57:42;4.88;;;1.77;;
69253;SDS011;56364;41.816;12.448;2023-07-31T09:00:09;4.85;;;2.15;;
69253;SDS011;56364;41.816;12.448;2023-07-31T09:05:08;4.78;;;1.80;;
69253;SDS011;56364;41.816;12.448;2023-07-31T09:07:35;5.72;;;2.10;;
69253;SDS011;56364;41.816;12.448;2023-07-31T09:10:01;10.02;;;2.25;;
69253;SDS011;56364;41.816;12.448;2023-07-31T09:12:28;6.25;;;2.20;;
69253;SDS011;56364;41.816;12.448;2023-07-31T09:14:54;3.92;;;1.85;;
69253;SDS011;56364;41.816;12.448;2023-07-31T09:17:29;5.32;;;1.80;;
69253;SDS011;56364;41.816;12.448;2023-07-31T09:19:56;8.00;;;2.15;;
69253;SDS011;56364;41.816;12.448;2023-07-31T09:22:35;5.63;;;1.88;;
69253;SDS011;56364;41.816;12.448;2023-07-31T09:30:12;5.45;;;2.13;;
69253;SDS011;56364;41.816;12.448;2023-07-31T09:32:38;6.38;;;1.95;;
69253;SDS011;56364;41.816;12.448;2023-07-31T09:37:39;4.55;;;2.05;;
69253;SDS011;56364;41.816;12.448;2023-07-31T09:40:06;6.25;;;2.10;;
69253;SDS011;56364;41.816;12.448;2023-07-31T09:42:32;4.70;;;1.77;;
69253;SDS011;56364;41.816;12.448;2023-07-31T09:45:09;4.28;;;1.92;;
69253;SDS011;56364;41.816;12.448;2023-07-31T09:47:35;3.72;;;2.05;;
69253;SDS011;56364;41.816;12.448;2023-07-31T09:50:04;4.93;;;1.88;;
69253;SDS011;56364;41.816;12.448;2023-07-31T09:52:33;5.95;;;2.10;;
69253;SDS011;56364;41.816;12.448;2023-07-31T09:54:59;4.88;;;1.75;;
69253;SDS011;56364;41.816;12.448;2023-07-31T09:57:25;5.05;;;2.03;;
69253;SDS011;56364;41.816;12.448;2023-07-31T09:59:52;3.35;;;1.85;;
69253;SDS011;56364;41.816;12.448;2023-07-31T10:02:21;7.50;;;1.90;;
69253;SDS011;56364;41.816;12.448;2023-07-31T10:04:48;4.45;;;2.05;;
69253;SDS011;56364;41.816;12.448;2023-07-31T10:07:16;3.45;;;1.70;;
69253;SDS011;56364;41.816;12.448;2023-07-31T10:09:45;5.18;;;1.83;;
69253;SDS011;56364;41.816;12.448;2023-07-31T10:12:12;3.80;;;1.42;;
69253;SDS011;56364;41.816;12.448;2023-07-31T10:14:40;7.22;;;1.85;;
69253;SDS011;56364;41.816;12.448;2023-07-31T10:17:06;5.13;;;1.70;;
69253;SDS011;56364;41.816;12.448;2023-07-31T10:19:34;5.13;;;1.95;;
69253;SDS011;56364;41.816;12.448;2023-07-31T10:22:00;5.75;;;1.67;;
69253;SDS011;56364;41.816;12.448;2023-07-31T10:24:28;5.30;;;1.80;;
69253;SDS011;56364;41.816;12.448;2023-07-31T10:26:57;4.78;;;1.80;;
69253;SDS011;56364;41.816;12.448;2023-07-31T10:29:23;4.30;;;2.05;;
69253;SDS011;56364;41.816;12.448;2023-07-31T10:31:50;3.50;;;1.70;;
69253;SDS011;56364;41.816;12.448;2023-07-31T10:34:16;4.18;;;1.75;;
69253;SDS011;56364;41.816;12.448;2023-07-31T10:36:42;6.00;;;1.90;;
69253;SDS011;56364;41.816;12.448;2023-07-31T10:42:11;4.03;;;1.75;;
69253;SDS011;56364;41.816;12.448;2023-07-31T10:44:37;4.60;;;1.80;;
69253;SDS011;56364;41.816;12.448;2023-07-31T10:47:06;3.47;;;1.60;;
69253;SDS011;56364;41.816;12.448;2023-07-31T10:49:32;4.15;;;2.03;;
69253;SDS011;56364;41.816;12.448;2023-07-31T10:51:58;5.50;;;1.90;;
69253;SDS011;56364;41.816;12.448;2023-07-31T10:54:24;7.72;;;2.00;;
69253;SDS011;56364;41.816;12.448;2023-07-31T10:56:53;4.18;;;1.75;;
69253;SDS011;56364;41.816;12.448;2023-07-31T10:59:19;5.95;;;1.90;;
69253;SDS011;56364;41.816;12.448;2023-07-31T11:01:55;4.18;;;1.77;;
69253;SDS011;56364;41.816;12.448;2023-07-31T11:04:27;5.07;;;1.88;;
69253;SDS011;56364;41.816;12.448;2023-07-31T11:06:59;15.38;;;2.00;;
69253;SDS011;56364;41.816;12.448;2023-07-31T11:09:29;3.83;;;1.70;;
69253;SDS011;56364;41.816;12.448;2023-07-31T11:11:55;4.30;;;1.45;;
69253;SDS011;56364;41.816;12.448;2023-07-31T11:14:22;4.70;;;1.50;;
69253;SDS011;56364;41.816;12.448;2023-07-31T11:16:51;6.22;;;2.00;;
69253;SDS011;56364;41.816;12.448;2023-07-31T11:19:23;5.18;;;1.85;;
69253;SDS011;56364;41.816;12.448;2023-07-31T11:21:50;7.00;;;2.05;;
69253;SDS011;56364;41.816;12.448;2023-07-31T11:24:16;5.15;;;2.10;;
69253;SDS011;56364;41.816;12.448;2023-07-31T11:26:52;8.55;;;1.92;;
69253;SDS011;56364;41.816;12.448;2023-07-31T11:29:21;3.47;;;1.70;;
69253;SDS011;56364;41.816;12.448;2023-07-31T11:31:53;5.20;;;2.70;;
69253;SDS011;56364;41.816;12.448;2023-07-31T11:34:19;5.00;;;2.42;;
69253;SDS011;56364;41.816;12.448;2023-07-31T11:36:55;6.30;;;2.58;;
69253;SDS011;56364;41.816;12.448;2023-07-31T11:39:21;6.75;;;3.05;;
69253;SDS011;56364;41.816;12.448;2023-07-31T11:41:47;7.07;;;2.97;;
69253;SDS011;56364;41.816;12.448;2023-07-31T11:44:13;9.75;;;2.65;;
69253;SDS011;56364;41.816;12.448;2023-07-31T11:46:39;6.25;;;2.42;;
69253;SDS011;56364;41.816;12.448;2023-07-31T11:49:05;9.27;;;2.67;;
69253;SDS011;56364;41.816;12.448;2023-07-31T11:51:31;7.10;;;2.88;;
69253;SDS011;56364;41.816;12.448;2023-07-31T11:53:57;6.70;;;2.70;;
69253;SDS011;56364;41.816;12.448;2023-07-31T11:56:24;10.77;;;2.95;;
69253;SDS011;56364;41.816;12.448;2023-07-31T11:58:57;7.63;;;2.60;;
69253;SDS011;56364;41.816;12.448;2023-07-31T12:01:24;12.60;;;3.28;;
69253;SDS011;56364;41.816;12.448;2023-07-31T12:03:50;5.75;;;2.65;;
69253;SDS011;56364;41.816;12.448;2023-07-31T12:06:17;9.23;;;3.03;;
69253;SDS011;56364;41.816;12.448;2023-07-31T12:08:45;11.38;;;3.45;;
69253;SDS011;56364;41.816;12.448;2023-07-31T12:11:12;6.15;;;2.80;;
69253;SDS011;56364;41.816;12.448;2023-07-31T12:13:42;8.88;;;3.30;;
69253;SDS011;56364;41.816;12.448;2023-07-31T12:16:08;8.60;;;3.00;;
69253;SDS011;56364;41.816;12.448;2023-07-31T12:18:36;11.63;;;2.72;;
69253;SDS011;56364;41.816;12.448;2023-07-31T12:21:04;7.70;;;3.03;;
69253;SDS011;56364;41.816;12.448;2023-07-31T12:23:31;7.68;;;3.22;;
69253;SDS011;56364;41.816;12.448;2023-07-31T12:26:11;7.32;;;2.70;;
69253;SDS011;56364;41.816;12.448;2023-07-31T12:28:47;9.57;;;3.00;;
69253;SDS011;56364;41.816;12.448;2023-07-31T12:33:42;8.77;;;2.65;;
69253;SDS011;56364;41.816;12.448;2023-07-31T12:36:18;8.35;;;2.92;;
69253;SDS011;56364;41.816;12.448;2023-07-31T12:38:45;6.22;;;2.50;;
69253;SDS011;56364;41.816;12.448;2023-07-31T12:41:12;8.52;;;3.03;;
69253;SDS011;56364;41.816;12.448;2023-07-31T12:43:39;6.95;;;2.70;;
69253;SDS011;56364;41.816;12.448;2023-07-31T12:46:05;6.68;;;2.25;;
69253;SDS011;56364;41.816;12.448;2023-07-31T12:48:33;6.60;;;2.38;;
69253;SDS011;56364;41.816;12.448;2023-07-31T12:50:59;8.00;;;2.90;;
69253;SDS011;56364;41.816;12.448;2023-07-31T12:53:25;5.35;;;2.60;;
69253;SDS011;56364;41.816;12.448;2023-07-31T12:55:51;9.63;;;2.40;;
69253;SDS011;56364;41.816;12.448;2023-07-31T12:58:17;9.27;;;2.63;;
69253;SDS011;56364;41.816;12.448;2023-07-31T13:00:43;5.85;;;2.42;;
69253;SDS011;56364;41.816;12.448;2023-07-31T13:03:09;10.27;;;2.67;;
69253;SDS011;56364;41.816;12.448;2023-07-31T13:05:35;8.23;;;2.47;;
69253;SDS011;56364;41.816;12.448;2023-07-31T13:08:01;9.05;;;2.95;;
69253;SDS011;56364;41.816;12.448;2023-07-31T13:10:28;10.25;;;3.17;;
69253;SDS011;56364;41.816;12.448;2023-07-31T13:12:55;5.45;;;2.70;;
69253;SDS011;56364;41.816;12.448;2023-07-31T13:15:21;6.35;;;2.38;;
69253;SDS011;56364;41.816;12.448;2023-07-31T13:17:47;8.10;;;2.80;;
69253;SDS011;56364;41.816;12.448;2023-07-31T13:20:13;7.32;;;2.50;;
69253;SDS011;56364;41.816;12.448;2023-07-31T13:22:39;5.40;;;2.40;;
69253;SDS011;56364;41.816;12.448;2023-07-31T13:25:05;5.25;;;2.78;;
69253;SDS011;56364;41.816;12.448;2023-07-31T13:27:31;7.38;;;2.67;;
69253;SDS011;56364;41.816;12.448;2023-07-31T13:29:58;8.02;;;2.38;;
69253;SDS011;56364;41.816;12.448;2023-07-31T13:32:24;10.02;;;2.40;;
69253;SDS011;56364;41.816;12.448;2023-07-31T13:34:50;9.93;;;2.83;;
69253;SDS011;56364;41.816;12.448;2023-07-31T13:37:16;10.73;;;2.80;;
69253;SDS011;56364;41.816;12.448;2023-07-31T13:39:42;7.55;;;2.53;;
69253;SDS011;56364;41.816;12.448;2023-07-31T13:42:08;5.55;;;2.33;;
69253;SDS011;56364;41.816;12.448;2023-07-31T13:44:40;6.82;;;2.75;;
69253;SDS011;56364;41.816;12.448;2023-07-31T13:47:06;8.88;;;2.90;;
69253;SDS011;56364;41.816;12.448;2023-07-31T13:49:32;7.50;;;2.90;;
69253;SDS011;56364;41.816;12.448;2023-07-31T13:51:59;5.30;;;2.38;;
69253;SDS011;56364;41.816;12.448;2023-07-31T13:54:25;3.90;;;2.28;;
69253;SDS011;56364;41.816;12.448;2023-07-31T13:56:52;9.15;;;2.70;;
69253;SDS011;56364;41.816;12.448;2023-07-31T13:59:19;6.53;;;2.60;;
69253;SDS011;56364;41.816;12.448;2023-07-31T14:01:47;11.88;;;2.55;;
69253;SDS011;56364;41.816;12.448;2023-07-31T14:04:13;7.20;;;2.30;;
69253;SDS011;56364;41.816;12.448;2023-07-31T14:06:39;8.48;;;2.28;;
69253;SDS011;56364;41.816;12.448;2023-07-31T14:09:05;7.15;;;2.50;;
69253;SDS011;56364;41.816;12.448;2023-07-31T14:11:31;6.65;;;3.05;;
69253;SDS011;56364;41.816;12.448;2023-07-31T14:13:57;11.02;;;3.20;;
69253;SDS011;56364;41.816;12.448;2023-07-31T14:16:24;6.90;;;2.65;;
69253;SDS011;56364;41.816;12.448;2023-07-31T14:18:50;7.63;;;2.95;;
69253;SDS011;56364;41.816;12.448;2023-07-31T14:21:16;4.75;;;2.40;;
69253;SDS011;56364;41.816;12.448;2023-07-31T14:23:44;8.60;;;2.50;;
69253;SDS011;56364;41.816;12.448;2023-07-31T14:26:10;10.13;;;2.55;;
69253;SDS011;56364;41.816;12.448;2023-07-31T14:28:36;7.05;;;2.58;;
69253;SDS011;56364;41.816;12.448;2023-07-31T14:31:02;6.88;;;2.72;;
69253;SDS011;56364;41.816;12.448;2023-07-31T14:33:28;7.70;;;2.30;;
69253;SDS011;56364;41.816;12.448;2023-07-31T14:35:54;4.65;;;1.90;;
69253;SDS011;56364;41.816;12.448;2023-07-31T14:38:20;3.80;;;2.03;;
69253;SDS011;56364;41.816;12.448;2023-07-31T14:40:46;9.07;;;2.58;;
69253;SDS011;56364;41.816;12.448;2023-07-31T14:43:13;11.30;;;2.55;;
69253;SDS011;56364;41.816;12.448;2023-07-31T14:45:39;5.43;;;1.90;;
69253;SDS011;56364;41.816;12.448;2023-07-31T14:48:05;6.38;;;1.85;;
69253;SDS011;56364;41.816;12.448;2023-07-31T14:50:31;5.05;;;1.90;;
69253;SDS011;56364;41.816;12.448;2023-07-31T14:52:57;6.90;;;2.03;;
69253;SDS011;56364;41.816;12.448;2023-07-31T14:55:23;4.88;;;1.98;;
69253;SDS011;56364;41.816;12.448;2023-07-31T14:57:49;8.05;;;2.13;;
69253;SDS011;56364;41.816;12.448;2023-07-31T15:00:15;13.18;;;2.35;;
69253;SDS011;56364;41.816;12.448;2023-07-31T15:02:41;7.20;;;2.17;;
69253;SDS011;56364;41.816;12.448;2023-07-31T15:05:07;4.18;;;1.85;;
69253;SDS011;56364;41.816;12.448;2023-07-31T15:07:34;6.85;;;2.10;;
69253;SDS011;56364;41.816;12.448;2023-07-31T15:10:01;7.57;;;2.22;;
69253;SDS011;56364;41.816;12.448;2023-07-31T15:12:27;6.13;;;2.13;;
69253;SDS011;56364;41.816;12.448;2023-07-31T15:14:53;9.00;;;2.17;;
69253;SDS011;56364;41.816;12.448;2023-07-31T15:17:19;6.32;;;2.03;;
69253;SDS011;56364;41.816;12.448;2023-07-31T15:19:45;5.57;;;2.08;;